Marselisborg — A8VR8 — position and weather

sailwx.info

Track history (hours):
 
Tides and Currents Weather Stations Pressure Air Temp Water Temp Dewpoint Dewpoint Depression Visibility Wind Speed Wind Dir Waves Ship Positions

Marselisborg

Last reported at 2015-Jul-03 23:08 UTC. Time now 2015-Jul-04 22:29 UTC.
Position N 49°03' W 005°21'.

Length 138 m; draft 7.3 m.

Type: Ship. MMSI: 636092036.

Date/timePositionNaut miles runAvg speedWind from/ knotsBaromVisibWave heightAir tempDewpointWater temp
2015-Jul-03 23:08N 49°03' W 005°21'12114.2
2015-Jul-03 14:34N 50°02' W 002°38'1717.2
2015-Jul-03 13:33N 50°07' W 002°12'1313.1
2015-Jul-03 12:33N 50°10' W 001°52'1110.9
2015-Jul-03 11:33N 50°13' W 001°36'8113.1
2015-Jul-03 05:25N 50°35' E 000°26'1415.9
2015-Jul-03 04:34N 50°41' E 000°45'1615.4
2015-Jul-03 03:33N 50°50' E 001°05'1414.1
2015-Jul-03 02:32N 51°01' E 001°21'1212.1
2015-Jul-03 01:33N 51°08' E 001°36'1111.5
2015-Jul-03 00:33N 51°16' E 001°49'1313.0
2015-Jul-02 23:33N 51°27' E 001°57'1614.7
2015-Jul-02 22:27N 51°39' E 002°15'3215.7
2015-Jul-02 20:25N 52°04' E 002°49'1515.4
2015-Jul-02 19:26N 52°16' E 003°03'1314.6
2015-Jul-02 18:34N 52°26' E 003°16'1414.2
2015-Jul-02 17:33N 52°37' E 003°30'1413.7
2015-Jul-02 16:33N 52°48' E 003°45'1313.1
2015-Jul-02 15:33N 52°58' E 003°59'1313.3
2015-Jul-02 14:33N 53°06' E 004°16'1414.0
2015-Jul-02 13:33N 53°18' E 004°29'1514.8
2015-Jul-02 12:33N 53°29' E 004°45'1515.4
2015-Jul-02 11:33N 53°35' E 005°09'1515.0
2015-Jul-02 10:33N 53°40' E 005°33'1414.2
2015-Jul-02 09:33N 53°45' E 005°55'1313.3
2015-Jul-02 08:33N 53°49' E 006°17'5714.3
2015-Jul-02 04:33N 54°03' E 007°51'3115.3
2015-Jul-02 02:33N 53°55' E 008°41'6 5.9
2015-Jul-02 01:33N 53°51' E 008°48'1212.3
2015-Jul-02 00:33N 53°53' E 009°09'10 9.7
2015-Jul-01 23:33N 53°48' E 009°23'1210.9
2015-Jul-01 22:27N 53°37' E 009°33'1011.8
2015-Jul-01 21:33N 53°33' E 009°49'6 6.4
2015-Jul-01 20:33N 53°30' E 009°59'1 0.6
2015-Jul-01 19:33N 53°29' E 009°59'0 0.0
2015-Jul-01 18:30N 53°29' E 009°59'0 0.0
2015-Jul-01 17:33N 53°29' E 009°59'0 0.0
2015-Jul-01 16:33N 53°29' E 009°59'0 0.0
2015-Jul-01 15:30N 53°29' E 009°59'0 0.0
2015-Jul-01 14:33N 53°29' E 009°59'0 0.0
2015-Jul-01 13:33N 53°29' E 009°59'0 0.0
2015-Jul-01 12:33N 53°29' E 009°59'0 0.0
2015-Jul-01 11:33N 53°29' E 009°59'0 0.0
2015-Jul-01 10:30N 53°29' E 009°59'0 0.0
2015-Jul-01 09:33N 53°29' E 009°59'0 0.0
2015-Jul-01 08:22N 53°29' E 009°59'0 0.0
2015-Jul-01 07:33N 53°29' E 009°59'0 0.0
2015-Jul-01 06:27N 53°29' E 009°59'0 0.1
2015-Jul-01 05:33N 53°29' E 009°59'2 2.1
2015-Jul-01 04:33N 53°31' E 009°57'6 5.6
2015-Jul-01 03:34N 53°33' E 009°48'10 9.8
2015-Jul-01 02:33N 53°37' E 009°33'1312.6
2015-Jul-01 01:34N 53°48' E 009°22'1110.8
2015-Jul-01 00:33N 53°52' E 009°06'1212.1
2015-Jun-30 23:33N 53°51' E 008°45'1212.0
2015-Jun-30 22:33N 53°58' E 008°29'2013.3
2015-Jun-30 21:05N 53°58' E 007°56'815.4
2015-Jun-30 20:32N 53°56' E 007°42'1515.4
2015-Jun-30 19:33N 53°53' E 007°17'1515.4
2015-Jun-30 18:33N 53°49' E 006°51'1515.3
2015-Jun-30 17:33N 53°45' E 006°26'1514.9
2015-Jun-30 16:33N 53°41' E 006°03'1514.6
2015-Jun-30 15:33N 53°36' E 005°39'1414.4
2015-Jun-30 14:33N 53°32' E 005°16'1414.1
2015-Jun-30 13:33N 53°27' E 004°54'1312.9
2015-Jun-30 12:33N 53°18' E 004°39'1514.0
2015-Jun-30 11:28N 53°05' E 004°26'1213.7
2015-Jun-30 10:33N 52°54' E 004°16'1413.6
2015-Jun-30 09:33N 52°42' E 004°04'1413.5
2015-Jun-30 08:33N 52°33' E 003°48'1313.3
2015-Jun-30 07:33N 52°24' E 003°32'1313.1
2015-Jun-30 06:33N 52°13' E 003°19'1312.9
2015-Jun-30 05:33N 52°03' E 003°05'1313.2
2015-Jun-30 04:33N 51°50' E 003°05'1312.5
2015-Jun-30 03:33N 51°41' E 003°19'1413.6
2015-Jun-30 02:34N 51°29' E 003°30'1010.2
2015-Jun-30 01:33N 51°23' E 003°43'1010.3
2015-Jun-30 00:33N 51°26' E 003°59'9 8.7
2015-Jun-29 23:33N 51°24' E 004°12'4 4.3
2015-Jun-29 22:34N 51°21' E 004°17'1 1.0
2015-Jun-29 21:33N 51°20' E 004°18'4 4.3
2015-Jun-29 20:33N 51°17' E 004°23'0 0.0
2015-Jun-29 19:33N 51°17' E 004°23'0 0.0
2015-Jun-29 18:33N 51°17' E 004°23'0 0.0
2015-Jun-29 17:33N 51°17' E 004°23'0 0.0
2015-Jun-29 16:33N 51°17' E 004°23'0 0.0
2015-Jun-29 15:33N 51°17' E 004°23'0 0.0
2015-Jun-29 14:33N 51°17' E 004°23'0 0.0
2015-Jun-29 13:33N 51°17' E 004°23'0 0.0
2015-Jun-29 12:33N 51°17' E 004°23'0 0.0
2015-Jun-29 11:33N 51°17' E 004°23'0 0.0
2015-Jun-29 10:33N 51°17' E 004°23'0 0.0
2015-Jun-29 09:33N 51°17' E 004°23'0 0.0
2015-Jun-29 08:33N 51°17' E 004°23'0 0.0
2015-Jun-29 07:33N 51°17' E 004°23'0 0.0
2015-Jun-29 06:33N 51°17' E 004°23'0 0.0
2015-Jun-29 05:33N 51°17' E 004°23'0 0.0
2015-Jun-29 04:33N 51°17' E 004°23'0 0.0
2015-Jun-29 03:33N 51°17' E 004°23'0 0.0
2015-Jun-29 02:33N 51°17' E 004°23'0 0.0
2015-Jun-29 01:33N 51°17' E 004°23'0 0.0
2015-Jun-29 00:33N 51°17' E 004°23'0 0.0
2015-Jun-28 23:33N 51°17' E 004°23'0 0.0
2015-Jun-28 22:33N 51°17' E 004°23'0 0.0
2015-Jun-28 21:33N 51°17' E 004°23'0 0.0
2015-Jun-28 20:33N 51°17' E 004°23'0 0.0
2015-Jun-28 19:30N 51°17' E 004°23'0 0.0
2015-Jun-28 18:33N 51°17' E 004°23'0 0.0
2015-Jun-28 17:33N 51°17' E 004°23'0 0.0
2015-Jun-28 16:33N 51°17' E 004°23'0 0.0
2015-Jun-28 15:33N 51°17' E 004°23'0 0.0
2015-Jun-28 14:33N 51°17' E 004°23'0 0.0
2015-Jun-28 13:33N 51°17' E 004°23'0 0.0
2015-Jun-28 12:33N 51°17' E 004°23'0 0.0
2015-Jun-28 11:33N 51°17' E 004°23'0 0.0
2015-Jun-28 10:33N 51°17' E 004°23'0 0.0
2015-Jun-28 09:33N 51°17' E 004°23'0 0.0
2015-Jun-28 08:33N 51°17' E 004°23'0 0.0
2015-Jun-28 07:33N 51°17' E 004°23'0 0.0
2015-Jun-28 06:33N 51°17' E 004°23'0 0.0
2015-Jun-28 05:33N 51°17' E 004°23'0 0.0
2015-Jun-28 04:33N 51°17' E 004°23'0 0.0
2015-Jun-28 03:33N 51°17' E 004°23'0 0.0
2015-Jun-28 02:33N 51°17' E 004°23'0 0.0
2015-Jun-28 01:33N 51°17' E 004°23'0 0.0
2015-Jun-28 00:33N 51°17' E 004°23'0 0.0
2015-Jun-27 23:33N 51°17' E 004°23'0 0.0
2015-Jun-27 22:33N 51°17' E 004°23'0 0.0
2015-Jun-27 21:33N 51°17' E 004°23'0 0.0
2015-Jun-27 20:33N 51°17' E 004°23'0 0.0
2015-Jun-27 19:33N 51°17' E 004°23'0 0.0
2015-Jun-27 18:33N 51°17' E 004°23'0 0.0
2015-Jun-27 17:33N 51°17' E 004°23'0 0.0
2015-Jun-27 16:33N 51°17' E 004°23'0 0.0
2015-Jun-27 15:33N 51°17' E 004°23'0 0.0
2015-Jun-27 14:33N 51°17' E 004°23'0 0.0
2015-Jun-27 13:33N 51°17' E 004°23'0 0.0
2015-Jun-27 12:33N 51°17' E 004°23'0 0.0
2015-Jun-27 11:33N 51°17' E 004°23'0 0.0
2015-Jun-27 10:33N 51°17' E 004°23'0 0.0
2015-Jun-27 09:33N 51°17' E 004°23'0 0.0
2015-Jun-27 08:33N 51°17' E 004°23'0 0.0
2015-Jun-27 07:33N 51°17' E 004°23'0 0.0
2015-Jun-27 06:33N 51°17' E 004°23'0 0.0
2015-Jun-27 05:33N 51°17' E 004°23'0 0.0
2015-Jun-27 04:33N 51°17' E 004°23'0 0.0
2015-Jun-27 03:30N 51°17' E 004°23'0 0.0
2015-Jun-27 02:33N 51°17' E 004°23'0 0.0
2015-Jun-27 01:33N 51°17' E 004°23'0 0.0
2015-Jun-27 00:30N 51°17' E 004°23'0 0.0
2015-Jun-26 23:33N 51°17' E 004°23'0 0.0
2015-Jun-26 22:33N 51°17' E 004°23'0 0.0
2015-Jun-26 21:33N 51°17' E 004°23'0 0.0
2015-Jun-26 20:33N 51°17' E 004°23'0 0.0
2015-Jun-26 19:33N 51°17' E 004°23'0 0.0
2015-Jun-26 18:33N 51°17' E 004°23'0 0.0
2015-Jun-26 17:33N 51°17' E 004°23'0 0.0
2015-Jun-26 16:33N 51°17' E 004°23'0 0.0
2015-Jun-26 15:33N 51°17' E 004°23'0 0.0
2015-Jun-26 14:33N 51°17' E 004°23'0 0.0
2015-Jun-26 13:33N 51°17' E 004°23'0 0.0
2015-Jun-26 12:33N 51°17' E 004°23'0 0.0
2015-Jun-26 11:33N 51°17' E 004°23'0 0.0
2015-Jun-26 10:33N 51°17' E 004°23'0 0.0
2015-Jun-26 09:33N 51°17' E 004°23'0 0.0
2015-Jun-26 08:33N 51°17' E 004°23'0 0.0
2015-Jun-26 07:33N 51°17' E 004°23'0 0.0
2015-Jun-26 06:27N 51°17' E 004°23'0 0.0
2015-Jun-26 05:33N 51°17' E 004°23'0 0.0
2015-Jun-26 04:33N 51°17' E 004°23'0 0.0
2015-Jun-26 03:33N 51°17' E 004°23'0 0.0
2015-Jun-26 02:33N 51°17' E 004°23'0 0.0
2015-Jun-26 01:33N 51°17' E 004°23'0 0.0
2015-Jun-26 00:33N 51°17' E 004°23'0 0.0
2015-Jun-25 23:33N 51°17' E 004°23'0 0.0
2015-Jun-25 22:34N 51°17' E 004°23'2 1.7
2015-Jun-25 21:33N 51°17' E 004°20'4 4.0
2015-Jun-25 20:34N 51°21' E 004°17'1 1.0
2015-Jun-25 19:34N 51°21' E 004°16'1010.1
2015-Jun-25 18:33N 51°26' E 004°01'1211.8
2015-Jun-25 17:34N 51°23' E 003°43'10 9.8
2015-Jun-25 16:34N 51°25' E 003°27'1413.5
2015-Jun-25 15:33N 51°24' E 003°06'10 9.7
2015-Jun-25 14:33N 51°22' E 002°50'9 9.3
2015-Jun-25 13:33N 51°22' E 002°36'3 2.8
2015-Jun-25 12:33N 51°20' E 002°32'0 0.1
2015-Jun-25 11:33N 51°20' E 002°32'1 0.9
2015-Jun-25 10:33N 51°21' E 002°32'13 9.8
2015-Jun-25 09:14N 51°16' E 002°13'811.4
2015-Jun-25 08:33N 51°12' E 002°03'1111.3
2015-Jun-25 07:33N 51°07' E 001°47'9 7.5
2015-Jun-25 06:25N 50°58' E 001°49'2 1.4
2015-Jun-25 05:17N 50°58' E 001°52'0 0.0
2015-Jun-25 04:20N 50°58' E 001°52'0 0.0
2015-Jun-25 03:29N 50°58' E 001°52'0 0.0
2015-Jun-25 01:32N 50°58' E 001°52'0 0.0
2015-Jun-25 00:29N 50°58' E 001°52'0 0.0
2015-Jun-24 23:32N 50°58' E 001°52'0 0.0
2015-Jun-24 22:33N 50°58' E 001°52'0 0.0
2015-Jun-24 21:32N 50°58' E 001°52'0 0.0
2015-Jun-24 20:29N 50°58' E 001°52'0 0.0
2015-Jun-24 19:14N 50°58' E 001°52'0 0.0
2015-Jun-24 18:32N 50°58' E 001°52'0 0.0
2015-Jun-24 16:14N 50°58' E 001°52'0 0.0
2015-Jun-24 15:32N 50°58' E 001°52'0 0.0
2015-Jun-24 14:32N 50°58' E 001°52'0 0.0
2015-Jun-24 13:32N 50°58' E 001°52'0 0.0
2015-Jun-24 12:20N 50°58' E 001°52'0 0.0
2015-Jun-24 11:17N 50°58' E 001°52'0 0.0
2015-Jun-24 10:30N 50°58' E 001°52'0 0.0
2015-Jun-24 09:05N 50°58' E 001°52'0 0.0
2015-Jun-24 07:32N 50°58' E 001°52'0 0.0
2015-Jun-24 06:23N 50°58' E 001°52'0 0.0
2015-Jun-24 05:32N 50°58' E 001°52'0 0.0
2015-Jun-24 04:11N 50°58' E 001°52'0 0.0
2015-Jun-24 03:32N 50°58' E 001°52'0 0.0
2015-Jun-24 02:29N 50°58' E 001°52'0 0.0
2015-Jun-24 01:32N 50°58' E 001°52'0 0.0
2015-Jun-24 00:29N 50°58' E 001°52'  
Track history (hours):
 
Tides and Currents Weather Stations Pressure Air Temp Water Temp Dewpoint Dewpoint Depression Visibility Wind Speed Wind Dir Waves Ship Positions

Marselisborg

Last reported at 2015-Jul-03 23:08 UTC. Time now 2015-Jul-04 22:29 UTC.
Position N 49°03' W 005°21'.

Length 138 m; draft 7.3 m.

Type: Ship. MMSI: 636092036.

Date/timePositionNaut miles runAvg speedWind from/ knotsBaromVisibWave heightAir tempDewpointWater temp
2015-Jul-03 23:08N 49°03' W 005°21'12114.2
2015-Jul-03 14:34N 50°02' W 002°38'1717.2
2015-Jul-03 13:33N 50°07' W 002°12'1313.1
2015-Jul-03 12:33N 50°10' W 001°52'1110.9
2015-Jul-03 11:33N 50°13' W 001°36'8113.1
2015-Jul-03 05:25N 50°35' E 000°26'1415.9
2015-Jul-03 04:34N 50°41' E 000°45'1615.4
2015-Jul-03 03:33N 50°50' E 001°05'1414.1
2015-Jul-03 02:32N 51°01' E 001°21'1212.1
2015-Jul-03 01:33N 51°08' E 001°36'1111.5
2015-Jul-03 00:33N 51°16' E 001°49'1313.0
2015-Jul-02 23:33N 51°27' E 001°57'1614.7
2015-Jul-02 22:27N 51°39' E 002°15'3215.7
2015-Jul-02 20:25N 52°04' E 002°49'1515.4
2015-Jul-02 19:26N 52°16' E 003°03'1314.6
2015-Jul-02 18:34N 52°26' E 003°16'1414.2
2015-Jul-02 17:33N 52°37' E 003°30'1413.7
2015-Jul-02 16:33N 52°48' E 003°45'1313.1
2015-Jul-02 15:33N 52°58' E 003°59'1313.3
2015-Jul-02 14:33N 53°06' E 004°16'1414.0
2015-Jul-02 13:33N 53°18' E 004°29'1514.8
2015-Jul-02 12:33N 53°29' E 004°45'1515.4
2015-Jul-02 11:33N 53°35' E 005°09'1515.0
2015-Jul-02 10:33N 53°40' E 005°33'1414.2
2015-Jul-02 09:33N 53°45' E 005°55'1313.3
2015-Jul-02 08:33N 53°49' E 006°17'5714.3
2015-Jul-02 04:33N 54°03' E 007°51'3115.3
2015-Jul-02 02:33N 53°55' E 008°41'6 5.9
2015-Jul-02 01:33N 53°51' E 008°48'1212.3
2015-Jul-02 00:33N 53°53' E 009°09'10 9.7
2015-Jul-01 23:33N 53°48' E 009°23'1210.9
2015-Jul-01 22:27N 53°37' E 009°33'1011.8
2015-Jul-01 21:33N 53°33' E 009°49'6 6.4
2015-Jul-01 20:33N 53°30' E 009°59'1 0.6
2015-Jul-01 19:33N 53°29' E 009°59'0 0.0
2015-Jul-01 18:30N 53°29' E 009°59'0 0.0
2015-Jul-01 17:33N 53°29' E 009°59'0 0.0
2015-Jul-01 16:33N 53°29' E 009°59'0 0.0
2015-Jul-01 15:30N 53°29' E 009°59'0 0.0
2015-Jul-01 14:33N 53°29' E 009°59'0 0.0
2015-Jul-01 13:33N 53°29' E 009°59'0 0.0
2015-Jul-01 12:33N 53°29' E 009°59'0 0.0
2015-Jul-01 11:33N 53°29' E 009°59'0 0.0
2015-Jul-01 10:30N 53°29' E 009°59'0 0.0
2015-Jul-01 09:33N 53°29' E 009°59'0 0.0
2015-Jul-01 08:22N 53°29' E 009°59'0 0.0
2015-Jul-01 07:33N 53°29' E 009°59'0 0.0
2015-Jul-01 06:27N 53°29' E 009°59'0 0.1
2015-Jul-01 05:33N 53°29' E 009°59'2 2.1
2015-Jul-01 04:33N 53°31' E 009°57'6 5.6
2015-Jul-01 03:34N 53°33' E 009°48'10 9.8
2015-Jul-01 02:33N 53°37' E 009°33'1312.6
2015-Jul-01 01:34N 53°48' E 009°22'1110.8
2015-Jul-01 00:33N 53°52' E 009°06'1212.1
2015-Jun-30 23:33N 53°51' E 008°45'1212.0
2015-Jun-30 22:33N 53°58' E 008°29'2013.3
2015-Jun-30 21:05N 53°58' E 007°56'815.4
2015-Jun-30 20:32N 53°56' E 007°42'1515.4
2015-Jun-30 19:33N 53°53' E 007°17'1515.4
2015-Jun-30 18:33N 53°49' E 006°51'1515.3
2015-Jun-30 17:33N 53°45' E 006°26'1514.9
2015-Jun-30 16:33N 53°41' E 006°03'1514.6
2015-Jun-30 15:33N 53°36' E 005°39'1414.4
2015-Jun-30 14:33N 53°32' E 005°16'1414.1
2015-Jun-30 13:33N 53°27' E 004°54'1312.9
2015-Jun-30 12:33N 53°18' E 004°39'1514.0
2015-Jun-30 11:28N 53°05' E 004°26'1213.7
2015-Jun-30 10:33N 52°54' E 004°16'1413.6
2015-Jun-30 09:33N 52°42' E 004°04'1413.5
2015-Jun-30 08:33N 52°33' E 003°48'1313.3
2015-Jun-30 07:33N 52°24' E 003°32'1313.1
2015-Jun-30 06:33N 52°13' E 003°19'1312.9
2015-Jun-30 05:33N 52°03' E 003°05'1313.2
2015-Jun-30 04:33N 51°50' E 003°05'1312.5
2015-Jun-30 03:33N 51°41' E 003°19'1413.6
2015-Jun-30 02:34N 51°29' E 003°30'1010.2
2015-Jun-30 01:33N 51°23' E 003°43'1010.3
2015-Jun-30 00:33N 51°26' E 003°59'9 8.7
2015-Jun-29 23:33N 51°24' E 004°12'4 4.3
2015-Jun-29 22:34N 51°21' E 004°17'1 1.0
2015-Jun-29 21:33N 51°20' E 004°18'4 4.3
2015-Jun-29 20:33N 51°17' E 004°23'0 0.0
2015-Jun-29 19:33N 51°17' E 004°23'0 0.0
2015-Jun-29 18:33N 51°17' E 004°23'0 0.0
2015-Jun-29 17:33N 51°17' E 004°23'0 0.0
2015-Jun-29 16:33N 51°17' E 004°23'0 0.0
2015-Jun-29 15:33N 51°17' E 004°23'0 0.0
2015-Jun-29 14:33N 51°17' E 004°23'0 0.0
2015-Jun-29 13:33N 51°17' E 004°23'0 0.0
2015-Jun-29 12:33N 51°17' E 004°23'0 0.0
2015-Jun-29 11:33N 51°17' E 004°23'0 0.0
2015-Jun-29 10:33N 51°17' E 004°23'0 0.0
2015-Jun-29 09:33N 51°17' E 004°23'0 0.0
2015-Jun-29 08:33N 51°17' E 004°23'0 0.0
2015-Jun-29 07:33N 51°17' E 004°23'0 0.0
2015-Jun-29 06:33N 51°17' E 004°23'0 0.0
2015-Jun-29 05:33N 51°17' E 004°23'0 0.0
2015-Jun-29 04:33N 51°17' E 004°23'0 0.0
2015-Jun-29 03:33N 51°17' E 004°23'0 0.0
2015-Jun-29 02:33N 51°17' E 004°23'0 0.0
2015-Jun-29 01:33N 51°17' E 004°23'0 0.0
2015-Jun-29 00:33N 51°17' E 004°23'0 0.0
2015-Jun-28 23:33N 51°17' E 004°23'0 0.0
2015-Jun-28 22:33N 51°17' E 004°23'0 0.0
2015-Jun-28 21:33N 51°17' E 004°23'0 0.0
2015-Jun-28 20:33N 51°17' E 004°23'0 0.0
2015-Jun-28 19:30N 51°17' E 004°23'0 0.0
2015-Jun-28 18:33N 51°17' E 004°23'0 0.0
2015-Jun-28 17:33N 51°17' E 004°23'0 0.0
2015-Jun-28 16:33N 51°17' E 004°23'0 0.0
2015-Jun-28 15:33N 51°17' E 004°23'0 0.0
2015-Jun-28 14:33N 51°17' E 004°23'0 0.0
2015-Jun-28 13:33N 51°17' E 004°23'0 0.0
2015-Jun-28 12:33N 51°17' E 004°23'0 0.0
2015-Jun-28 11:33N 51°17' E 004°23'0 0.0
2015-Jun-28 10:33N 51°17' E 004°23'0 0.0
2015-Jun-28 09:33N 51°17' E 004°23'0 0.0
2015-Jun-28 08:33N 51°17' E 004°23'0 0.0
2015-Jun-28 07:33N 51°17' E 004°23'0 0.0
2015-Jun-28 06:33N 51°17' E 004°23'0 0.0
2015-Jun-28 05:33N 51°17' E 004°23'0 0.0
2015-Jun-28 04:33N 51°17' E 004°23'0 0.0
2015-Jun-28 03:33N 51°17' E 004°23'0 0.0
2015-Jun-28 02:33N 51°17' E 004°23'0 0.0
2015-Jun-28 01:33N 51°17' E 004°23'0 0.0
2015-Jun-28 00:33N 51°17' E 004°23'0 0.0
2015-Jun-27 23:33N 51°17' E 004°23'0 0.0
2015-Jun-27 22:33N 51°17' E 004°23'0 0.0
2015-Jun-27 21:33N 51°17' E 004°23'0 0.0
2015-Jun-27 20:33N 51°17' E 004°23'0 0.0
2015-Jun-27 19:33N 51°17' E 004°23'0 0.0
2015-Jun-27 18:33N 51°17' E 004°23'0 0.0
2015-Jun-27 17:33N 51°17' E 004°23'0 0.0
2015-Jun-27 16:33N 51°17' E 004°23'0 0.0
2015-Jun-27 15:33N 51°17' E 004°23'0 0.0
2015-Jun-27 14:33N 51°17' E 004°23'0 0.0
2015-Jun-27 13:33N 51°17' E 004°23'0 0.0
2015-Jun-27 12:33N 51°17' E 004°23'0 0.0
2015-Jun-27 11:33N 51°17' E 004°23'0 0.0
2015-Jun-27 10:33N 51°17' E 004°23'0 0.0
2015-Jun-27 09:33N 51°17' E 004°23'0 0.0
2015-Jun-27 08:33N 51°17' E 004°23'0 0.0
2015-Jun-27 07:33N 51°17' E 004°23'0 0.0
2015-Jun-27 06:33N 51°17' E 004°23'0 0.0
2015-Jun-27 05:33N 51°17' E 004°23'0 0.0
2015-Jun-27 04:33N 51°17' E 004°23'0 0.0
2015-Jun-27 03:30N 51°17' E 004°23'0 0.0
2015-Jun-27 02:33N 51°17' E 004°23'0 0.0
2015-Jun-27 01:33N 51°17' E 004°23'0 0.0
2015-Jun-27 00:30N 51°17' E 004°23'0 0.0
2015-Jun-26 23:33N 51°17' E 004°23'0 0.0
2015-Jun-26 22:33N 51°17' E 004°23'0 0.0
2015-Jun-26 21:33N 51°17' E 004°23'0 0.0
2015-Jun-26 20:33N 51°17' E 004°23'0 0.0
2015-Jun-26 19:33N 51°17' E 004°23'0 0.0
2015-Jun-26 18:33N 51°17' E 004°23'0 0.0
2015-Jun-26 17:33N 51°17' E 004°23'0 0.0
2015-Jun-26 16:33N 51°17' E 004°23'0 0.0
2015-Jun-26 15:33N 51°17' E 004°23'0 0.0
2015-Jun-26 14:33N 51°17' E 004°23'0 0.0
2015-Jun-26 13:33N 51°17' E 004°23'0 0.0
2015-Jun-26 12:33N 51°17' E 004°23'0 0.0
2015-Jun-26 11:33N 51°17' E 004°23'0 0.0
2015-Jun-26 10:33N 51°17' E 004°23'0 0.0
2015-Jun-26 09:33N 51°17' E 004°23'0 0.0
2015-Jun-26 08:33N 51°17' E 004°23'0 0.0
2015-Jun-26 07:33N 51°17' E 004°23'0 0.0
2015-Jun-26 06:27N 51°17' E 004°23'0 0.0
2015-Jun-26 05:33N 51°17' E 004°23'0 0.0
2015-Jun-26 04:33N 51°17' E 004°23'0 0.0
2015-Jun-26 03:33N 51°17' E 004°23'0 0.0
2015-Jun-26 02:33N 51°17' E 004°23'0 0.0
2015-Jun-26 01:33N 51°17' E 004°23'0 0.0
2015-Jun-26 00:33N 51°17' E 004°23'0 0.0
2015-Jun-25 23:33N 51°17' E 004°23'0 0.0
2015-Jun-25 22:34N 51°17' E 004°23'2 1.7
2015-Jun-25 21:33N 51°17' E 004°20'4 4.0
2015-Jun-25 20:34N 51°21' E 004°17'1 1.0
2015-Jun-25 19:34N 51°21' E 004°16'1010.1
2015-Jun-25 18:33N 51°26' E 004°01'1211.8
2015-Jun-25 17:34N 51°23' E 003°43'10 9.8
2015-Jun-25 16:34N 51°25' E 003°27'1413.5
2015-Jun-25 15:33N 51°24' E 003°06'10 9.7
2015-Jun-25 14:33N 51°22' E 002°50'9 9.3
2015-Jun-25 13:33N 51°22' E 002°36'3 2.8
2015-Jun-25 12:33N 51°20' E 002°32'0 0.1
2015-Jun-25 11:33N 51°20' E 002°32'1 0.9
2015-Jun-25 10:33N 51°21' E 002°32'13 9.8
2015-Jun-25 09:14N 51°16' E 002°13'811.4
2015-Jun-25 08:33N 51°12' E 002°03'1111.3
2015-Jun-25 07:33N 51°07' E 001°47'9 7.5
2015-Jun-25 06:25N 50°58' E 001°49'2 1.4
2015-Jun-25 05:17N 50°58' E 001°52'0 0.0
2015-Jun-25 04:20N 50°58' E 001°52'0 0.0
2015-Jun-25 03:29N 50°58' E 001°52'0 0.0
2015-Jun-25 01:32N 50°58' E 001°52'0 0.0
2015-Jun-25 00:29N 50°58' E 001°52'0 0.0
2015-Jun-24 23:32N 50°58' E 001°52'0 0.0
2015-Jun-24 22:33N 50°58' E 001°52'0 0.0
2015-Jun-24 21:32N 50°58' E 001°52'0 0.0
2015-Jun-24 20:29N 50°58' E 001°52'0 0.0
2015-Jun-24 19:14N 50°58' E 001°52'0 0.0
2015-Jun-24 18:32N 50°58' E 001°52'0 0.0
2015-Jun-24 16:14N 50°58' E 001°52'0 0.0
2015-Jun-24 15:32N 50°58' E 001°52'0 0.0
2015-Jun-24 14:32N 50°58' E 001°52'0 0.0
2015-Jun-24 13:32N 50°58' E 001°52'0 0.0
2015-Jun-24 12:20N 50°58' E 001°52'0 0.0
2015-Jun-24 11:17N 50°58' E 001°52'0 0.0
2015-Jun-24 10:30N 50°58' E 001°52'0 0.0
2015-Jun-24 09:05N 50°58' E 001°52'0 0.0
2015-Jun-24 07:32N 50°58' E 001°52'0 0.0
2015-Jun-24 06:23N 50°58' E 001°52'0 0.0
2015-Jun-24 05:32N 50°58' E 001°52'0 0.0
2015-Jun-24 04:11N 50°58' E 001°52'0 0.0
2015-Jun-24 03:32N 50°58' E 001°52'0 0.0
2015-Jun-24 02:29N 50°58' E 001°52'0 0.0
2015-Jun-24 01:32N 50°58' E 001°52'0 0.0
2015-Jun-24 00:29N 50°58' E 001°52'  

Dump ship's entire track history